LBSF/SOF METAR and TAF weather

Enter ICAO airport designator
Station Type Date Time Source
LBSF METAR 2019/04/22 18:00 UTC NOAA

LBSF 221800Z 12013KT 9999 FEW066 14/03 Q1017 NOSIG


Station Type Date Time Source
LBSF Decoded METAR 2019/04/22 18:00 UTC NOAA

Sofia Observ. , Bulgaria (LBSF) 42-39N 023-23E 595M
Apr 22, 2019 - 02:00 PM EDT / 2019.04.22 1800 UTC
Wind: from the ESE (120 degrees) at 15 MPH (13 KT):0
Visibility: greater than 7 mile(s):0
Sky conditions: mostly clear
Temperature: 57 F (14 C)
Dew Point: 37 F (3 C)
Relative Humidity: 47%
Pressure (altimeter): 30.03 in. Hg (1017 hPa)
ob: LBSF 221800Z 12013KT 9999 FEW066 14/03 Q1017 NOSIG
cycle: 18

Station Type Date Time Source
LBSF TAF 2019/04/22 18:18 UTC NOAA

TAF LBSF 221700Z 2218/2318 12014KT 9999 SCT040 BKN065
BECMG 2223/2301 5000 RA SCT020 OVC040
TEMPO 2302/2306 3000 RA BKN015 OVC030
BECMG 2310/2312 12014G24KT 9999 NSW SCT025 BKN060

Example: see airport list